sensor_id;sensor_type;location;lat;lon;timestamp;pressure;altitude;pressure_sealevel;temperature;humidity
17521;BME280;8878;-33.370;-70.552;2022-12-18T00:01:32;91857.75;;;24.29;38.33
17521;BME280;8878;-33.370;-70.552;2022-12-18T00:04:02;91861.34;;;24.17;38.63
17521;BME280;8878;-33.370;-70.552;2022-12-18T00:06:33;91866.66;;;24.14;38.41
17521;BME280;8878;-33.370;-70.552;2022-12-18T00:09:04;91870.44;;;24.29;38.23
17521;BME280;8878;-33.370;-70.552;2022-12-18T00:11:34;91869.50;;;24.02;39.06
17521;BME280;8878;-33.370;-70.552;2022-12-18T00:14:05;91877.56;;;24.02;39.34
17521;BME280;8878;-33.370;-70.552;2022-12-18T00:16:34;91889.56;;;23.85;39.65
17521;BME280;8878;-33.370;-70.552;2022-12-18T00:19:04;91886.88;;;23.85;39.96
17521;BME280;8878;-33.370;-70.552;2022-12-18T00:21:34;91882.75;;;23.72;40.28
17521;BME280;8878;-33.370;-70.552;2022-12-18T00:24:05;91892.66;;;23.68;40.58
17521;BME280;8878;-33.370;-70.552;2022-12-18T00:26:36;91895.53;;;23.59;40.66
17521;BME280;8878;-33.370;-70.552;2022-12-18T00:29:09;91902.63;;;23.48;41.00
17521;BME280;8878;-33.370;-70.552;2022-12-18T00:31:41;91911.75;;;23.12;41.69
17521;BME280;8878;-33.370;-70.552;2022-12-18T00:34:11;91908.03;;;23.01;41.79
17521;BME280;8878;-33.370;-70.552;2022-12-18T00:36:41;91915.47;;;22.92;42.66
17521;BME280;8878;-33.370;-70.552;2022-12-18T00:39:11;91917.47;;;23.11;41.95
17521;BME280;8878;-33.370;-70.552;2022-12-18T00:41:40;91924.41;;;22.80;43.05
17521;BME280;8878;-33.370;-70.552;2022-12-18T00:44:28;91921.69;;;22.64;43.41
17521;BME280;8878;-33.370;-70.552;2022-12-18T00:46:57;91928.50;;;23.21;42.58
17521;BME280;8878;-33.370;-70.552;2022-12-18T00:49:27;91924.78;;;22.94;42.83
17521;BME280;8878;-33.370;-70.552;2022-12-18T00:51:56;91931.53;;;23.35;41.99
17521;BME280;8878;-33.370;-70.552;2022-12-18T00:54:26;91943.78;;;23.49;41.81
17521;BME280;8878;-33.370;-70.552;2022-12-18T00:56:55;91933.63;;;22.79;43.27
17521;BME280;8878;-33.370;-70.552;2022-12-18T00:59:24;91938.13;;;22.91;43.02
17521;BME280;8878;-33.370;-70.552;2022-12-18T01:01:55;91938.53;;;22.77;43.65
17521;BME280;8878;-33.370;-70.552;2022-12-18T01:04:26;91937.25;;;22.87;43.12
17521;BME280;8878;-33.370;-70.552;2022-12-18T01:06:55;91939.84;;;22.83;43.15
17521;BME280;8878;-33.370;-70.552;2022-12-18T01:09:25;91932.94;;;23.14;42.76
17521;BME280;8878;-33.370;-70.552;2022-12-18T01:11:54;91941.41;;;23.31;42.11
17521;BME280;8878;-33.370;-70.552;2022-12-18T01:14:24;91944.44;;;23.46;42.12
17521;BME280;8878;-33.370;-70.552;2022-12-18T01:16:55;91941.88;;;23.49;41.70
17521;BME280;8878;-33.370;-70.552;2022-12-18T01:19:25;91937.09;;;23.58;42.02
17521;BME280;8878;-33.370;-70.552;2022-12-18T01:21:54;91948.53;;;23.39;41.81
17521;BME280;8878;-33.370;-70.552;2022-12-18T01:24:24;91955.56;;;22.97;42.98
17521;BME280;8878;-33.370;-70.552;2022-12-18T01:26:53;91953.03;;;22.88;43.15
17521;BME280;8878;-33.370;-70.552;2022-12-18T01:29:24;91955.47;;;23.25;42.62
17521;BME280;8878;-33.370;-70.552;2022-12-18T01:31:55;91946.72;;;23.43;42.77
17521;BME280;8878;-33.370;-70.552;2022-12-18T01:34:25;91953.25;;;23.58;42.53
17521;BME280;8878;-33.370;-70.552;2022-12-18T01:36:54;91949.22;;;23.68;41.80
17521;BME280;8878;-33.370;-70.552;2022-12-18T01:39:23;91946.97;;;23.54;42.39
17521;BME280;8878;-33.370;-70.552;2022-12-18T01:41:53;91955.25;;;23.30;42.79
17521;BME280;8878;-33.370;-70.552;2022-12-18T01:44:57;91944.19;;;23.35;43.42
17521;BME280;8878;-33.370;-70.552;2022-12-18T01:47:34;91943.06;;;23.20;44.28
17521;BME280;8878;-33.370;-70.552;2022-12-18T01:50:08;91945.66;;;23.32;43.63
17521;BME280;8878;-33.370;-70.552;2022-12-18T01:52:39;91944.09;;;23.31;43.69
17521;BME280;8878;-33.370;-70.552;2022-12-18T01:55:11;91944.28;;;23.38;43.90
17521;BME280;8878;-33.370;-70.552;2022-12-18T01:57:41;91936.03;;;23.31;45.18
17521;BME280;8878;-33.370;-70.552;2022-12-18T02:00:14;91933.78;;;23.18;45.89
17521;BME280;8878;-33.370;-70.552;2022-12-18T02:02:46;91923.00;;;23.18;45.43
17521;BME280;8878;-33.370;-70.552;2022-12-18T02:05:18;91924.41;;;23.27;44.71
17521;BME280;8878;-33.370;-70.552;2022-12-18T02:07:55;91919.44;;;23.45;43.77
17521;BME280;8878;-33.370;-70.552;2022-12-18T02:10:29;91906.69;;;23.42;44.97
17521;BME280;8878;-33.370;-70.552;2022-12-18T02:13:06;91911.13;;;23.34;44.95
17521;BME280;8878;-33.370;-70.552;2022-12-18T02:15:43;91913.03;;;23.18;45.08
17521;BME280;8878;-33.370;-70.552;2022-12-18T02:18:19;91904.97;;;23.02;45.43
17521;BME280;8878;-33.370;-70.552;2022-12-18T02:20:55;91903.50;;;23.05;45.34
17521;BME280;8878;-33.370;-70.552;2022-12-18T02:23:46;91896.56;;;23.04;44.81
17521;BME280;8878;-33.370;-70.552;2022-12-18T02:26:23;91898.72;;;23.14;44.17
17521;BME280;8878;-33.370;-70.552;2022-12-18T02:28:59;91894.72;;;23.24;43.61
17521;BME280;8878;-33.370;-70.552;2022-12-18T02:31:33;91883.59;;;23.10;44.87
17521;BME280;8878;-33.370;-70.552;2022-12-18T02:34:07;91881.63;;;23.07;43.93
17521;BME280;8878;-33.370;-70.552;2022-12-18T02:36:39;91873.84;;;23.01;43.52
17521;BME280;8878;-33.370;-70.552;2022-12-18T02:39:11;91872.34;;;23.04;43.21
17521;BME280;8878;-33.370;-70.552;2022-12-18T02:41:43;91871.03;;;23.14;43.32
17521;BME280;8878;-33.370;-70.552;2022-12-18T02:44:13;91879.78;;;23.11;43.33
17521;BME280;8878;-33.370;-70.552;2022-12-18T02:46:44;91875.63;;;22.66;44.24
17521;BME280;8878;-33.370;-70.552;2022-12-18T02:49:26;91874.91;;;22.69;44.84
17521;BME280;8878;-33.370;-70.552;2022-12-18T02:52:03;91881.28;;;22.77;44.10
17521;BME280;8878;-33.370;-70.552;2022-12-18T02:54:51;91880.94;;;22.78;43.71
17521;BME280;8878;-33.370;-70.552;2022-12-18T02:57:34;91881.41;;;22.52;44.13
17521;BME280;8878;-33.370;-70.552;2022-12-18T03:00:07;91888.34;;;22.38;44.32
17521;BME280;8878;-33.370;-70.552;2022-12-18T03:02:48;91902.25;;;22.27;45.00
17521;BME280;8878;-33.370;-70.552;2022-12-18T03:05:23;91903.88;;;21.76;45.82
17521;BME280;8878;-33.370;-70.552;2022-12-18T03:07:59;91907.03;;;21.66;45.72
17521;BME280;8878;-33.370;-70.552;2022-12-18T03:10:32;91912.31;;;21.51;46.31
17521;BME280;8878;-33.370;-70.552;2022-12-18T03:13:20;91910.47;;;21.79;46.08
17521;BME280;8878;-33.370;-70.552;2022-12-18T03:16:03;91902.25;;;22.00;45.52
17521;BME280;8878;-33.370;-70.552;2022-12-18T03:18:39;91913.22;;;21.42;46.91
17521;BME280;8878;-33.370;-70.552;2022-12-18T03:21:13;91905.25;;;20.97;47.85
17521;BME280;8878;-33.370;-70.552;2022-12-18T03:23:46;91912.75;;;21.04;47.62
17521;BME280;8878;-33.370;-70.552;2022-12-18T03:26:20;91905.72;;;21.11;47.66
17521;BME280;8878;-33.370;-70.552;2022-12-18T03:28:56;91907.75;;;21.27;47.49
17521;BME280;8878;-33.370;-70.552;2022-12-18T03:31:30;91903.38;;;21.59;46.82
17521;BME280;8878;-33.370;-70.552;2022-12-18T03:34:03;91896.47;;;21.85;46.19
17521;BME280;8878;-33.370;-70.552;2022-12-18T03:36:34;91901.69;;;21.94;46.13
17521;BME280;8878;-33.370;-70.552;2022-12-18T03:39:04;91906.34;;;21.69;46.43
17521;BME280;8878;-33.370;-70.552;2022-12-18T03:41:37;91903.59;;;21.94;45.96
17521;BME280;8878;-33.370;-70.552;2022-12-18T03:44:17;91901.34;;;22.08;47.26
17521;BME280;8878;-33.370;-70.552;2022-12-18T03:46:56;91899.84;;;22.10;47.48
17521;BME280;8878;-33.370;-70.552;2022-12-18T03:49:33;91900.09;;;22.05;47.92
17521;BME280;8878;-33.370;-70.552;2022-12-18T03:52:07;91896.44;;;21.98;47.69
17521;BME280;8878;-33.370;-70.552;2022-12-18T03:54:39;91893.09;;;22.01;47.03
17521;BME280;8878;-33.370;-70.552;2022-12-18T03:57:13;91901.56;;;22.03;47.76
17521;BME280;8878;-33.370;-70.552;2022-12-18T03:59:49;91895.97;;;22.08;47.55
17521;BME280;8878;-33.370;-70.552;2022-12-18T04:02:20;91903.38;;;21.99;48.08
17521;BME280;8878;-33.370;-70.552;2022-12-18T04:04:54;91897.25;;;21.86;48.74
17521;BME280;8878;-33.370;-70.552;2022-12-18T04:07:27;91894.63;;;21.62;47.82
17521;BME280;8878;-33.370;-70.552;2022-12-18T04:09:59;91886.34;;;21.67;47.74
17521;BME280;8878;-33.370;-70.552;2022-12-18T04:12:30;91880.59;;;21.68;48.46
17521;BME280;8878;-33.370;-70.552;2022-12-18T04:15:02;91882.97;;;21.70;48.08
17521;BME280;8878;-33.370;-70.552;2022-12-18T04:17:35;91887.59;;;21.57;48.11
17521;BME280;8878;-33.370;-70.552;2022-12-18T04:20:13;91891.38;;;21.56;48.04
17521;BME280;8878;-33.370;-70.552;2022-12-18T04:22:48;91901.41;;;21.71;47.60
17521;BME280;8878;-33.370;-70.552;2022-12-18T04:25:26;91892.91;;;21.69;48.77
17521;BME280;8878;-33.370;-70.552;2022-12-18T04:28:04;91887.16;;;21.43;49.04
17521;BME280;8878;-33.370;-70.552;2022-12-18T04:30:42;91886.03;;;21.32;48.65
17521;BME280;8878;-33.370;-70.552;2022-12-18T04:33:15;91880.56;;;20.80;49.36
17521;BME280;8878;-33.370;-70.552;2022-12-18T04:35:44;91881.25;;;20.89;49.53
17521;BME280;8878;-33.370;-70.552;2022-12-18T04:38:14;91871.47;;;20.48;50.20
17521;BME280;8878;-33.370;-70.552;2022-12-18T04:40:43;91876.31;;;20.66;50.32
17521;BME280;8878;-33.370;-70.552;2022-12-18T04:43:13;91871.50;;;20.96;50.69
17521;BME280;8878;-33.370;-70.552;2022-12-18T04:45:44;91863.69;;;21.16;49.91
17521;BME280;8878;-33.370;-70.552;2022-12-18T04:48:14;91871.22;;;21.22;49.77
17521;BME280;8878;-33.370;-70.552;2022-12-18T04:50:44;91865.72;;;21.19;49.14
17521;BME280;8878;-33.370;-70.552;2022-12-18T04:53:13;91867.50;;;21.15;49.83
17521;BME280;8878;-33.370;-70.552;2022-12-18T04:55:42;91861.78;;;21.04;49.94
17521;BME280;8878;-33.370;-70.552;2022-12-18T04:58:12;91851.41;;;21.02;49.45
17521;BME280;8878;-33.370;-70.552;2022-12-18T05:00:43;91844.25;;;21.06;49.37
17521;BME280;8878;-33.370;-70.552;2022-12-18T05:03:12;91840.78;;;21.18;48.87
17521;BME280;8878;-33.370;-70.552;2022-12-18T05:05:42;91831.75;;;21.23;49.08
17521;BME280;8878;-33.370;-70.552;2022-12-18T05:08:11;91836.09;;;21.27;49.18
17521;BME280;8878;-33.370;-70.552;2022-12-18T05:10:41;91828.59;;;21.33;48.43
17521;BME280;8878;-33.370;-70.552;2022-12-18T05:13:11;91816.97;;;21.29;48.85
17521;BME280;8878;-33.370;-70.552;2022-12-18T05:15:41;91814.28;;;21.29;49.08
17521;BME280;8878;-33.370;-70.552;2022-12-18T05:18:12;91811.94;;;21.27;48.72
17521;BME280;8878;-33.370;-70.552;2022-12-18T05:20:41;91819.34;;;20.57;50.31
17521;BME280;8878;-33.370;-70.552;2022-12-18T05:23:11;91817.88;;;20.36;50.18
17521;BME280;8878;-33.370;-70.552;2022-12-18T05:25:40;91812.31;;;20.41;49.98
17521;BME280;8878;-33.370;-70.552;2022-12-18T05:28:10;91803.59;;;20.44;49.96
17521;BME280;8878;-33.370;-70.552;2022-12-18T05:30:40;91803.50;;;20.52;49.83
17521;BME280;8878;-33.370;-70.552;2022-12-18T05:33:14;91795.78;;;20.63;50.01
17521;BME280;8878;-33.370;-70.552;2022-12-18T05:35:43;91799.38;;;20.79;49.50
17521;BME280;8878;-33.370;-70.552;2022-12-18T05:38:13;91796.00;;;20.82;48.75
17521;BME280;8878;-33.370;-70.552;2022-12-18T05:40:42;91803.81;;;20.99;48.37
17521;BME280;8878;-33.370;-70.552;2022-12-18T05:43:12;91799.31;;;21.03;48.44
17521;BME280;8878;-33.370;-70.552;2022-12-18T05:45:41;91800.69;;;20.85;48.65
17521;BME280;8878;-33.370;-70.552;2022-12-18T05:48:13;91806.16;;;20.77;49.28
17521;BME280;8878;-33.370;-70.552;2022-12-18T05:50:43;91806.50;;;20.75;49.41
17521;BME280;8878;-33.370;-70.552;2022-12-18T05:53:14;91792.19;;;20.83;49.53
17521;BME280;8878;-33.370;-70.552;2022-12-18T05:55:44;91798.22;;;21.04;48.69
17521;BME280;8878;-33.370;-70.552;2022-12-18T05:58:14;91790.16;;;21.04;48.68
17521;BME280;8878;-33.370;-70.552;2022-12-18T06:00:45;91786.69;;;21.04;49.03
17521;BME280;8878;-33.370;-70.552;2022-12-18T06:03:17;91798.78;;;20.98;48.67
17521;BME280;8878;-33.370;-70.552;2022-12-18T06:05:46;91793.88;;;20.63;49.57
17521;BME280;8878;-33.370;-70.552;2022-12-18T06:08:15;91786.97;;;20.62;50.32
17521;BME280;8878;-33.370;-70.552;2022-12-18T06:10:51;91788.63;;;20.43;51.15
17521;BME280;8878;-33.370;-70.552;2022-12-18T06:13:22;91775.25;;;20.43;51.97
17521;BME280;8878;-33.370;-70.552;2022-12-18T06:15:51;91776.34;;;20.42;51.82
17521;BME280;8878;-33.370;-70.552;2022-12-18T06:18:23;91783.28;;;20.43;50.66
17521;BME280;8878;-33.370;-70.552;2022-12-18T06:20:55;91777.50;;;20.53;51.02
17521;BME280;8878;-33.370;-70.552;2022-12-18T06:23:25;91780.38;;;20.48;51.25
17521;BME280;8878;-33.370;-70.552;2022-12-18T06:25:56;91773.69;;;20.42;51.04
17521;BME280;8878;-33.370;-70.552;2022-12-18T06:28:25;91773.22;;;20.40;51.20
17521;BME280;8878;-33.370;-70.552;2022-12-18T06:30:54;91773.91;;;20.37;51.34
17521;BME280;8878;-33.370;-70.552;2022-12-18T06:33:28;91770.63;;;20.19;50.81
17521;BME280;8878;-33.370;-70.552;2022-12-18T06:36:01;91770.50;;;20.15;51.03
17521;BME280;8878;-33.370;-70.552;2022-12-18T06:38:31;91769.16;;;20.21;51.59
17521;BME280;8878;-33.370;-70.552;2022-12-18T06:41:05;91765.75;;;20.33;51.71
17521;BME280;8878;-33.370;-70.552;2022-12-18T06:43:35;91764.69;;;20.25;51.93
17521;BME280;8878;-33.370;-70.552;2022-12-18T06:46:05;91768.28;;;20.29;51.70
17521;BME280;8878;-33.370;-70.552;2022-12-18T06:48:36;91758.91;;;20.23;51.60
17521;BME280;8878;-33.370;-70.552;2022-12-18T06:51:06;91762.34;;;20.12;51.14
17521;BME280;8878;-33.370;-70.552;2022-12-18T06:53:36;91765.25;;;20.07;51.81
17521;BME280;8878;-33.370;-70.552;2022-12-18T06:56:07;91755.97;;;20.04;52.21
17521;BME280;8878;-33.370;-70.552;2022-12-18T06:58:37;91752.31;;;20.09;52.30
17521;BME280;8878;-33.370;-70.552;2022-12-18T07:01:08;91743.41;;;20.17;51.54
17521;BME280;8878;-33.370;-70.552;2022-12-18T07:03:40;91753.66;;;20.27;50.90
17521;BME280;8878;-33.370;-70.552;2022-12-18T07:06:15;91746.06;;;20.29;51.08
17521;BME280;8878;-33.370;-70.552;2022-12-18T07:08:44;91746.72;;;20.14;51.89
17521;BME280;8878;-33.370;-70.552;2022-12-18T07:11:14;91739.13;;;20.04;52.09
17521;BME280;8878;-33.370;-70.552;2022-12-18T07:13:44;91747.69;;;19.97;52.26
17521;BME280;8878;-33.370;-70.552;2022-12-18T07:16:15;91745.56;;;19.90;52.62
17521;BME280;8878;-33.370;-70.552;2022-12-18T07:18:47;91741.47;;;19.93;52.67
17521;BME280;8878;-33.370;-70.552;2022-12-18T07:21:18;91747.50;;;20.02;51.63
17521;BME280;8878;-33.370;-70.552;2022-12-18T07:23:48;91750.06;;;20.11;51.71
17521;BME280;8878;-33.370;-70.552;2022-12-18T07:26:19;91748.16;;;19.99;52.03
17521;BME280;8878;-33.370;-70.552;2022-12-18T07:28:49;91743.50;;;19.96;52.50
17521;BME280;8878;-33.370;-70.552;2022-12-18T07:31:19;91750.28;;;19.93;51.97
17521;BME280;8878;-33.370;-70.552;2022-12-18T07:33:51;91745.94;;;19.89;52.36
17521;BME280;8878;-33.370;-70.552;2022-12-18T07:36:20;91745.22;;;19.80;52.72
17521;BME280;8878;-33.370;-70.552;2022-12-18T07:38:51;91745.09;;;19.76;52.71
17521;BME280;8878;-33.370;-70.552;2022-12-18T07:41:21;91744.56;;;19.83;52.46
17521;BME280;8878;-33.370;-70.552;2022-12-18T07:43:53;91737.44;;;19.99;51.65
17521;BME280;8878;-33.370;-70.552;2022-12-18T07:46:23;91738.25;;;20.00;50.86
17521;BME280;8878;-33.370;-70.552;2022-12-18T07:48:54;91734.00;;;19.99;51.13
17521;BME280;8878;-33.370;-70.552;2022-12-18T07:51:23;91741.78;;;19.91;52.08
17521;BME280;8878;-33.370;-70.552;2022-12-18T07:53:53;91738.19;;;19.75;52.55
17521;BME280;8878;-33.370;-70.552;2022-12-18T07:56:22;91749.72;;;19.55;52.92
17521;BME280;8878;-33.370;-70.552;2022-12-18T07:58:52;91739.63;;;19.61;53.66
17521;BME280;8878;-33.370;-70.552;2022-12-18T08:01:22;91732.03;;;19.63;53.12
17521;BME280;8878;-33.370;-70.552;2022-12-18T08:03:53;91732.00;;;19.50;52.28
17521;BME280;8878;-33.370;-70.552;2022-12-18T08:06:23;91731.34;;;19.53;53.19
17521;BME280;8878;-33.370;-70.552;2022-12-18T08:08:53;91737.66;;;19.49;53.86
17521;BME280;8878;-33.370;-70.552;2022-12-18T08:11:24;91742.16;;;19.57;53.25
17521;BME280;8878;-33.370;-70.552;2022-12-18T08:13:54;91747.16;;;19.46;53.77
17521;BME280;8878;-33.370;-70.552;2022-12-18T08:16:24;91748.88;;;19.42;54.54
17521;BME280;8878;-33.370;-70.552;2022-12-18T08:18:55;91750.72;;;19.50;54.67
17521;BME280;8878;-33.370;-70.552;2022-12-18T08:21:26;91744.06;;;19.57;54.60
17521;BME280;8878;-33.370;-70.552;2022-12-18T08:23:57;91745.16;;;19.55;54.66
17521;BME280;8878;-33.370;-70.552;2022-12-18T08:26:29;91748.22;;;19.45;54.42
17521;BME280;8878;-33.370;-70.552;2022-12-18T08:29:00;91743.06;;;19.40;54.75
17521;BME280;8878;-33.370;-70.552;2022-12-18T08:31:30;91744.91;;;19.48;54.38
17521;BME280;8878;-33.370;-70.552;2022-12-18T08:34:01;91750.84;;;19.54;53.58
17521;BME280;8878;-33.370;-70.552;2022-12-18T08:36:30;91750.50;;;19.55;54.67
17521;BME280;8878;-33.370;-70.552;2022-12-18T08:39:00;91753.00;;;19.61;54.51
17521;BME280;8878;-33.370;-70.552;2022-12-18T08:41:29;91758.09;;;19.53;54.88
17521;BME280;8878;-33.370;-70.552;2022-12-18T08:43:58;91751.44;;;19.39;54.63
17521;BME280;8878;-33.370;-70.552;2022-12-18T08:46:44;91747.78;;;19.43;54.51
17521;BME280;8878;-33.370;-70.552;2022-12-18T08:49:15;91757.63;;;19.51;53.45
17521;BME280;8878;-33.370;-70.552;2022-12-18T08:51:44;91753.66;;;19.58;53.32
17521;BME280;8878;-33.370;-70.552;2022-12-18T08:54:14;91755.44;;;19.53;52.68
17521;BME280;8878;-33.370;-70.552;2022-12-18T08:56:44;91751.06;;;19.28;53.17
17521;BME280;8878;-33.370;-70.552;2022-12-18T08:59:13;91752.38;;;19.01;53.45
17521;BME280;8878;-33.370;-70.552;2022-12-18T09:01:43;91758.72;;;18.97;53.44
17521;BME280;8878;-33.370;-70.552;2022-12-18T09:04:15;91758.19;;;18.83;53.45
17521;BME280;8878;-33.370;-70.552;2022-12-18T09:06:45;91750.91;;;18.62;53.74
17521;BME280;8878;-33.370;-70.552;2022-12-18T09:09:14;91752.38;;;18.51;53.98
17521;BME280;8878;-33.370;-70.552;2022-12-18T09:11:43;91755.03;;;18.51;53.93
17521;BME280;8878;-33.370;-70.552;2022-12-18T09:14:14;91749.16;;;18.66;53.69
17521;BME280;8878;-33.370;-70.552;2022-12-18T09:16:43;91742.41;;;18.90;52.60
17521;BME280;8878;-33.370;-70.552;2022-12-18T09:19:14;91746.03;;;18.64;53.29
17521;BME280;8878;-33.370;-70.552;2022-12-18T09:21:44;91750.53;;;18.72;53.98
17521;BME280;8878;-33.370;-70.552;2022-12-18T09:24:14;91747.66;;;18.77;52.93
17521;BME280;8878;-33.370;-70.552;2022-12-18T09:26:44;91751.19;;;18.69;52.73
17521;BME280;8878;-33.370;-70.552;2022-12-18T09:29:13;91754.50;;;18.66;52.61
17521;BME280;8878;-33.370;-70.552;2022-12-18T09:31:44;91743.53;;;18.89;52.28
17521;BME280;8878;-33.370;-70.552;2022-12-18T09:34:15;91748.78;;;18.97;51.93
17521;BME280;8878;-33.370;-70.552;2022-12-18T09:36:44;91744.34;;;19.01;52.74
17521;BME280;8878;-33.370;-70.552;2022-12-18T09:39:14;91742.84;;;18.92;51.60
17521;BME280;8878;-33.370;-70.552;2022-12-18T09:41:45;91739.28;;;19.08;51.97
17521;BME280;8878;-33.370;-70.552;2022-12-18T09:44:24;91740.88;;;19.22;52.27
17521;BME280;8878;-33.370;-70.552;2022-12-18T09:47:03;91739.47;;;19.24;51.49
17521;BME280;8878;-33.370;-70.552;2022-12-18T09:49:39;91737.59;;;19.37;51.07
17521;BME280;8878;-33.370;-70.552;2022-12-18T09:52:14;91735.19;;;19.44;50.68
17521;BME280;8878;-33.370;-70.552;2022-12-18T09:54:48;91727.94;;;19.44;50.27
17521;BME280;8878;-33.370;-70.552;2022-12-18T09:57:22;91728.84;;;19.48;49.79
17521;BME280;8878;-33.370;-70.552;2022-12-18T09:59:55;91732.78;;;19.51;50.02
17521;BME280;8878;-33.370;-70.552;2022-12-18T10:02:29;91732.56;;;19.56;49.78
17521;BME280;8878;-33.370;-70.552;2022-12-18T10:05:10;91740.22;;;19.45;50.87
17521;BME280;8878;-33.370;-70.552;2022-12-18T10:07:47;91744.38;;;19.34;50.63
17521;BME280;8878;-33.370;-70.552;2022-12-18T10:10:26;91751.66;;;19.13;50.46
17521;BME280;8878;-33.370;-70.552;2022-12-18T10:13:05;91748.44;;;19.20;50.53
17521;BME280;8878;-33.370;-70.552;2022-12-18T10:15:46;91753.25;;;19.26;49.98
17521;BME280;8878;-33.370;-70.552;2022-12-18T10:18:26;91756.81;;;19.18;50.53
17521;BME280;8878;-33.370;-70.552;2022-12-18T10:21:03;91757.84;;;19.46;50.97
17521;BME280;8878;-33.370;-70.552;2022-12-18T10:23:41;91765.78;;;19.34;50.93
17521;BME280;8878;-33.370;-70.552;2022-12-18T10:26:12;91767.66;;;19.34;51.60
17521;BME280;8878;-33.370;-70.552;2022-12-18T10:28:42;91772.06;;;19.59;51.48
17521;BME280;8878;-33.370;-70.552;2022-12-18T10:31:16;91778.88;;;19.69;50.64
17521;BME280;8878;-33.370;-70.552;2022-12-18T10:33:47;91770.41;;;19.04;51.28
17521;BME280;8878;-33.370;-70.552;2022-12-18T10:36:18;91779.75;;;19.19;51.09
17521;BME280;8878;-33.370;-70.552;2022-12-18T10:38:48;91778.94;;;18.77;51.67
17521;BME280;8878;-33.370;-70.552;2022-12-18T10:41:25;91776.19;;;18.94;51.32
17521;BME280;8878;-33.370;-70.552;2022-12-18T10:44:14;91779.75;;;19.61;50.18
17521;BME280;8878;-33.370;-70.552;2022-12-18T10:46:49;91773.59;;;20.05;49.45
17521;BME280;8878;-33.370;-70.552;2022-12-18T10:49:25;91768.53;;;20.37;49.97
17521;BME280;8878;-33.370;-70.552;2022-12-18T10:52:14;91771.00;;;20.42;49.97
17521;BME280;8878;-33.370;-70.552;2022-12-18T10:54:49;91770.66;;;20.43;51.12
17521;BME280;8878;-33.370;-70.552;2022-12-18T10:57:32;91773.66;;;20.54;49.77
17521;BME280;8878;-33.370;-70.552;2022-12-18T11:00:22;91772.09;;;20.28;49.75
17521;BME280;8878;-33.370;-70.552;2022-12-18T11:02:52;91767.66;;;20.57;49.38
17521;BME280;8878;-33.370;-70.552;2022-12-18T11:05:31;91765.75;;;20.82;49.25
17521;BME280;8878;-33.370;-70.552;2022-12-18T11:08:03;91764.13;;;21.05;48.50
17521;BME280;8878;-33.370;-70.552;2022-12-18T11:10:47;91768.28;;;21.02;47.95
17521;BME280;8878;-33.370;-70.552;2022-12-18T11:13:18;91777.06;;;21.15;47.96
17521;BME280;8878;-33.370;-70.552;2022-12-18T11:15:49;91773.50;;;21.23;48.31
17521;BME280;8878;-33.370;-70.552;2022-12-18T11:18:23;91782.09;;;21.29;48.67
17521;BME280;8878;-33.370;-70.552;2022-12-18T11:20:55;91774.91;;;21.33;47.86
17521;BME280;8878;-33.370;-70.552;2022-12-18T11:23:27;91769.94;;;21.47;46.60
17521;BME280;8878;-33.370;-70.552;2022-12-18T11:26:00;91770.13;;;21.66;46.21
17521;BME280;8878;-33.370;-70.552;2022-12-18T11:28:38;91784.03;;;21.16;47.11
17521;BME280;8878;-33.370;-70.552;2022-12-18T11:31:23;91783.13;;;21.00;48.15
17521;BME280;8878;-33.370;-70.552;2022-12-18T11:34:02;91780.19;;;21.29;47.92
17521;BME280;8878;-33.370;-70.552;2022-12-18T11:36:36;91783.75;;;21.61;47.07
17521;BME280;8878;-33.370;-70.552;2022-12-18T11:39:14;91784.13;;;21.20;47.76
17521;BME280;8878;-33.370;-70.552;2022-12-18T11:41:52;91786.88;;;21.35;48.31
17521;BME280;8878;-33.370;-70.552;2022-12-18T11:44:43;91787.81;;;21.27;47.33
17521;BME280;8878;-33.370;-70.552;2022-12-18T11:47:21;91787.25;;;20.97;48.54
17521;BME280;8878;-33.370;-70.552;2022-12-18T11:49:53;91785.28;;;20.82;48.46
17521;BME280;8878;-33.370;-70.552;2022-12-18T11:52:27;91799.56;;;21.23;48.27
17521;BME280;8878;-33.370;-70.552;2022-12-18T11:55:09;91797.44;;;21.56;47.82
17521;BME280;8878;-33.370;-70.552;2022-12-18T11:57:43;91808.09;;;21.80;46.65
17521;BME280;8878;-33.370;-70.552;2022-12-18T12:00:19;91799.03;;;21.17;47.44
17521;BME280;8878;-33.370;-70.552;2022-12-18T12:03:06;91802.53;;;21.73;46.90
17521;BME280;8878;-33.370;-70.552;2022-12-18T12:05:49;91807.19;;;21.76;45.64
17521;BME280;8878;-33.370;-70.552;2022-12-18T12:08:28;91806.28;;;21.57;45.57
17521;BME280;8878;-33.370;-70.552;2022-12-18T12:11:08;91815.03;;;22.09;44.76
17521;BME280;8878;-33.370;-70.552;2022-12-18T12:13:50;91811.38;;;22.02;44.48
17521;BME280;8878;-33.370;-70.552;2022-12-18T12:16:25;91807.53;;;21.75;44.74
17521;BME280;8878;-33.370;-70.552;2022-12-18T12:19:12;91804.88;;;22.03;45.11
17521;BME280;8878;-33.370;-70.552;2022-12-18T12:21:49;91812.69;;;22.08;44.04
17521;BME280;8878;-33.370;-70.552;2022-12-18T12:24:36;91812.19;;;21.62;44.51
17521;BME280;8878;-33.370;-70.552;2022-12-18T12:27:15;91812.72;;;22.39;43.87
17521;BME280;8878;-33.370;-70.552;2022-12-18T12:29:55;91816.38;;;21.75;43.65
17521;BME280;8878;-33.370;-70.552;2022-12-18T12:32:41;91819.56;;;22.52;43.52
17521;BME280;8878;-33.370;-70.552;2022-12-18T12:35:25;91820.34;;;22.69;42.93
17521;BME280;8878;-33.370;-70.552;2022-12-18T12:38:04;91827.63;;;22.52;43.64
17521;BME280;8878;-33.370;-70.552;2022-12-18T12:40:36;91824.09;;;22.64;44.22
17521;BME280;8878;-33.370;-70.552;2022-12-18T12:43:22;91829.88;;;23.13;42.22
17521;BME280;8878;-33.370;-70.552;2022-12-18T12:45:56;91836.50;;;23.00;42.79
17521;BME280;8878;-33.370;-70.552;2022-12-18T12:48:35;91828.97;;;22.90;42.54
17521;BME280;8878;-33.370;-70.552;2022-12-18T12:51:12;91830.03;;;23.20;42.59
17521;BME280;8878;-33.370;-70.552;2022-12-18T12:53:42;91829.25;;;23.20;41.95
17521;BME280;8878;-33.370;-70.552;2022-12-18T12:56:14;91827.56;;;22.96;41.80
17521;BME280;8878;-33.370;-70.552;2022-12-18T12:58:54;91821.94;;;23.01;42.11
17521;BME280;8878;-33.370;-70.552;2022-12-18T13:01:32;91828.31;;;23.63;41.38
17521;BME280;8878;-33.370;-70.552;2022-12-18T13:04:11;91810.44;;;23.74;41.25
17521;BME280;8878;-33.370;-70.552;2022-12-18T13:06:47;91815.56;;;23.79;40.92
17521;BME280;8878;-33.370;-70.552;2022-12-18T13:09:22;91818.59;;;23.77;40.52
17521;BME280;8878;-33.370;-70.552;2022-12-18T13:11:51;91822.88;;;23.43;42.16